Time;durP1;ratioP1;P1;durP2;ratioP2;P2;SDS_P1;SDS_P2;PMS_P1;PMS_P2;Temp;Humidity;BMP_temperature;BMP_pressure;BME280_temperature;BME280_humidity;BME280_pressure;Samples;Min_cycle;Max_cycle;Signal;HPM_P1;HPM_P2
2022/10/09 00:01:59;;;;;;;10.05;2.60;;;;;;;;;;4999059;28;20235;-65
2022/10/09 00:04:24;;;;;;;8.20;2.85;;;;;;;;;;4996016;28;20650;-65
2022/10/09 00:06:50;;;;;;;9.00;2.70;;;;;;;;;;4994329;28;20232;-65
2022/10/09 00:09:16;;;;;;;6.88;2.50;;;;;;;;;;4997673;28;20235;-65
2022/10/09 00:11:41;;;;;;;10.23;2.80;;;;;;;;;;5003243;28;20251;-65
2022/10/09 00:14:06;;;;;;;7.15;2.92;;;;;;;;;;5000972;28;20600;-65
2022/10/09 00:16:31;;;;;;;11.80;3.08;;;;;;;;;;5002701;28;20258;-65
2022/10/09 00:18:57;;;;;;;11.32;2.90;;;;;;;;;;5002756;28;20231;-66
2022/10/09 00:21:24;;;;;;;8.60;3.20;;;;;;;;;;5002597;28;20282;-65
2022/10/09 00:23:50;;;;;;;10.57;3.03;;;;;;;;;;4999187;28;20798;-65
2022/10/09 00:26:15;;;;;;;12.18;3.40;;;;;;;;;;4993372;28;20232;-65
2022/10/09 00:28:40;;;;;;;10.30;3.03;;;;;;;;;;4994647;28;20209;-65
2022/10/09 00:31:06;;;;;;;9.60;3.20;;;;;;;;;;4994958;28;20441;-65
2022/10/09 00:33:31;;;;;;;10.50;3.08;;;;;;;;;;5002956;28;20228;-65
2022/10/09 00:35:57;;;;;;;7.72;2.85;;;;;;;;;;5001692;28;20315;-65
2022/10/09 00:38:22;;;;;;;8.75;2.95;;;;;;;;;;5002054;28;20749;-65
2022/10/09 00:40:47;;;;;;;7.05;2.78;;;;;;;;;;5002670;28;20224;-66
2022/10/09 00:43:14;;;;;;;8.27;3.05;;;;;;;;;;5001593;28;20219;-65
2022/10/09 00:45:41;;;;;;;9.25;3.10;;;;;;;;;;5001370;28;20323;-65
2022/10/09 00:48:06;;;;;;;8.77;3.20;;;;;;;;;;4994305;28;20240;-65
2022/10/09 00:50:38;;;;;;;8.35;3.30;;;;;;;;;;4993799;28;20646;-65
2022/10/09 00:53:03;;;;;;;9.52;3.85;;;;;;;;;;4994390;28;20209;-65
2022/10/09 00:55:29;;;;;;;7.40;3.15;;;;;;;;;;5000859;28;20262;-65
2022/10/09 00:57:54;;;;;;;9.68;3.40;;;;;;;;;;5002137;28;20703;-65
2022/10/09 01:00:20;;;;;;;9.52;3.30;;;;;;;;;;5000688;28;20725;-65
2022/10/09 01:02:45;;;;;;;7.85;3.15;;;;;;;;;;5002721;28;21040;-66
2022/10/09 01:05:10;;;;;;;8.63;3.40;;;;;;;;;;5001422;28;20307;-65
2022/10/09 01:07:37;;;;;;;9.43;3.75;;;;;;;;;;5002471;28;20227;-66
2022/10/09 01:10:03;;;;;;;9.90;3.67;;;;;;;;;;4996110;28;20212;-65
2022/10/09 01:12:32;;;;;;;11.43;3.63;;;;;;;;;;4993853;28;20647;-65
2022/10/09 01:15:02;;;;;;;8.32;3.58;;;;;;;;;;4992197;28;20570;-65
2022/10/09 01:17:30;;;;;;;12.60;4.30;;;;;;;;;;4997210;28;20208;-66
2022/10/09 01:19:57;;;;;;;12.50;4.43;;;;;;;;;;5004339;28;20220;-66
2022/10/09 01:22:35;;;;;;;13.50;5.60;;;;;;;;;;5006167;28;20215;-65
2022/10/09 01:25:05;;;;;;;11.45;4.50;;;;;;;;;;5004388;28;20683;-65
2022/10/09 01:27:31;;;;;;;10.20;4.32;;;;;;;;;;5004714;28;20227;-65
2022/10/09 01:29:59;;;;;;;7.95;3.90;;;;;;;;;;5006064;28;20212;-66
2022/10/09 01:32:26;;;;;;;11.07;4.88;;;;;;;;;;5000077;28;20611;-65
2022/10/09 01:34:51;;;;;;;15.02;5.32;;;;;;;;;;4996674;28;20243;-65
2022/10/09 01:37:16;;;;;;;9.20;3.88;;;;;;;;;;4996948;28;20223;-65
2022/10/09 01:39:41;;;;;;;11.32;4.22;;;;;;;;;;4999351;28;20216;-65
2022/10/09 01:42:07;;;;;;;10.30;4.05;;;;;;;;;;5005305;28;20659;-65
2022/10/09 01:44:32;;;;;;;9.98;4.13;;;;;;;;;;5004315;28;20221;-65
2022/10/09 01:46:58;;;;;;;10.40;4.55;;;;;;;;;;5004937;28;20328;-66
2022/10/09 01:49:30;;;;;;;15.75;4.22;;;;;;;;;;5004119;28;20220;-66
2022/10/09 01:52:07;;;;;;;8.20;4.05;;;;;;;;;;5005544;28;20307;-66
2022/10/09 01:54:32;;;;;;;8.68;3.72;;;;;;;;;;5002177;28;20695;-66
2022/10/09 01:56:57;;;;;;;9.02;3.92;;;;;;;;;;4997701;28;20230;-66
2022/10/09 01:59:22;;;;;;;15.02;5.00;;;;;;;;;;4995561;28;20224;-66
2022/10/09 02:01:48;;;;;;;8.02;3.90;;;;;;;;;;4996905;28;20216;-66
2022/10/09 02:04:13;;;;;;;7.80;4.53;;;;;;;;;;5003658;28;20806;-66
2022/10/09 02:06:39;;;;;;;10.30;4.10;;;;;;;;;;5003969;28;20224;-67
2022/10/09 02:09:06;;;;;;;11.88;4.40;;;;;;;;;;5002825;28;20758;-66
2022/10/09 02:11:31;;;;;;;10.20;4.38;;;;;;;;;;5005380;28;20220;-66
2022/10/09 02:13:56;;;;;;;11.73;4.10;;;;;;;;;;5003466;28;20714;-66
2022/10/09 02:16:26;;;;;;;10.95;4.18;;;;;;;;;;5004158;28;20223;-67
2022/10/09 02:19:00;;;;;;;10.88;3.95;;;;;;;;;;4997607;28;20822;-66
2022/10/09 02:21:34;;;;;;;11.23;4.45;;;;;;;;;;4996119;28;20212;-67
2022/10/09 02:23:59;;;;;;;10.32;4.53;;;;;;;;;;4996219;28;20567;-67
2022/10/09 02:26:25;;;;;;;8.35;3.60;;;;;;;;;;5003243;28;20317;-67
2022/10/09 02:28:50;;;;;;;9.32;4.30;;;;;;;;;;5002938;28;20220;-67
2022/10/09 02:31:16;;;;;;;12.50;4.88;;;;;;;;;;5002268;28;20695;-67
2022/10/09 02:33:42;;;;;;;9.20;3.83;;;;;;;;;;5003846;28;20296;-67
2022/10/09 02:36:07;;;;;;;13.80;4.57;;;;;;;;;;5003573;28;20311;-67
2022/10/09 02:38:32;;;;;;;14.73;5.65;;;;;;;;;;5005260;28;20224;-67
2022/10/09 02:40:58;;;;;;;11.63;5.32;;;;;;;;;;4999332;28;20807;-67
2022/10/09 02:43:23;;;;;;;9.98;4.70;;;;;;;;;;4995579;28;20618;-67
2022/10/09 02:45:49;;;;;;;11.30;5.00;;;;;;;;;;4995914;28;20256;-67
2022/10/09 02:48:14;;;;;;;13.98;4.47;;;;;;;;;;5002340;28;20677;-67
2022/10/09 02:50:39;;;;;;;10.50;4.07;;;;;;;;;;5003769;28;20317;-67
2022/10/09 02:53:06;;;;;;;13.15;4.93;;;;;;;;;;5004405;28;20227;-66
2022/10/09 02:55:31;;;;;;;13.73;4.78;;;;;;;;;;5004464;28;20222;-67
2022/10/09 02:57:56;;;;;;;8.48;4.50;;;;;;;;;;5003333;28;20224;-66
2022/10/09 03:00:22;;;;;;;10.23;5.03;;;;;;;;;;5004172;28;20208;-66
2022/10/09 03:02:47;;;;;;;10.18;4.63;;;;;;;;;;5000658;28;20315;-67
2022/10/09 03:05:12;;;;;;;10.52;5.30;;;;;;;;;;4995490;28;20749;-66
2022/10/09 03:07:37;;;;;;;10.65;4.80;;;;;;;;;;4996281;28;20263;-67
2022/10/09 03:10:03;;;;;;;12.32;4.50;;;;;;;;;;4999144;28;20234;-67
2022/10/09 03:12:28;;;;;;;7.95;4.82;;;;;;;;;;5003520;28;20543;-67
2022/10/09 03:14:53;;;;;;;11.30;5.00;;;;;;;;;;5003959;28;20212;-67
2022/10/09 03:17:19;;;;;;;11.48;5.10;;;;;;;;;;5003681;28;20303;-67
2022/10/09 03:19:44;;;;;;;13.63;5.15;;;;;;;;;;5003469;28;20212;-68
2022/10/09 03:22:09;;;;;;;10.48;4.68;;;;;;;;;;5003616;28;20240;-67
2022/10/09 03:24:34;;;;;;;13.63;6.03;;;;;;;;;;5003281;28;20212;-67
2022/10/09 03:27:00;;;;;;;11.82;5.03;;;;;;;;;;4995880;28;20319;-67
2022/10/09 03:29:25;;;;;;;10.43;5.00;;;;;;;;;;4995408;28;20561;-67
2022/10/09 03:31:50;;;;;;;10.25;5.35;;;;;;;;;;4995465;28;20275;-67
2022/10/09 03:34:15;;;;;;;14.13;5.78;;;;;;;;;;5003361;28;20213;-67
2022/10/09 03:36:41;;;;;;;12.80;5.38;;;;;;;;;;5004133;28;20224;-68
2022/10/09 03:39:06;;;;;;;10.77;5.78;;;;;;;;;;5002679;28;20234;-67
2022/10/09 03:41:31;;;;;;;10.00;5.43;;;;;;;;;;5002809;28;20227;-67
2022/10/09 03:43:57;;;;;;;10.55;5.53;;;;;;;;;;5002000;28;20227;-67
2022/10/09 03:46:22;;;;;;;12.70;6.22;;;;;;;;;;5002523;28;20564;-67
2022/10/09 03:48:47;;;;;;;13.10;6.85;;;;;;;;;;4998179;28;20439;-67
2022/10/09 03:51:12;;;;;;;12.60;5.75;;;;;;;;;;4994884;28;20805;-67
2022/10/09 03:53:38;;;;;;;12.48;5.80;;;;;;;;;;5006524;28;20625;-67
2022/10/09 03:56:03;;;;;;;10.27;5.43;;;;;;;;;;5012012;28;20216;-67
2022/10/09 03:58:28;;;;;;;13.18;5.55;;;;;;;;;;5012905;28;20700;-66
2022/10/09 04:00:54;;;;;;;9.80;5.65;;;;;;;;;;4995405;28;20754;-67
2022/10/09 04:03:19;;;;;;;10.35;5.80;;;;;;;;;;5002326;28;20565;-67
2022/10/09 04:05:44;;;;;;;12.00;5.72;;;;;;;;;;5003344;28;20231;-67
2022/10/09 04:08:10;;;;;;;13.60;5.88;;;;;;;;;;5001992;28;20292;-66
2022/10/09 04:10:35;;;;;;;13.00;5.45;;;;;;;;;;5003087;28;20773;-67
2022/10/09 04:13:01;;;;;;;10.50;5.65;;;;;;;;;;5002697;28;20212;-66
2022/10/09 04:15:26;;;;;;;11.75;5.90;;;;;;;;;;5001822;28;20219;-67
2022/10/09 04:17:51;;;;;;;11.48;5.40;;;;;;;;;;4998526;28;20256;-67
2022/10/09 04:20:17;;;;;;;9.55;5.55;;;;;;;;;;4994562;28;20684;-69
2022/10/09 04:22:42;;;;;;;13.85;6.00;;;;;;;;;;4994475;28;20219;-69
2022/10/09 04:25:08;;;;;;;10.18;5.07;;;;;;;;;;4998685;28;20208;-68
2022/10/09 04:27:33;;;;;;;10.73;5.47;;;;;;;;;;5003005;28;20227;-68
2022/10/09 04:29:58;;;;;;;10.00;5.63;;;;;;;;;;5002374;28;20212;-69
2022/10/09 04:32:23;;;;;;;12.13;5.85;;;;;;;;;;5002128;28;20262;-69
2022/10/09 04:34:49;;;;;;;13.27;5.45;;;;;;;;;;5003176;28;20248;-69
2022/10/09 04:37:14;;;;;;;11.25;5.28;;;;;;;;;;5001460;28;20221;-68
2022/10/09 04:39:39;;;;;;;10.30;5.47;;;;;;;;;;5001667;28;20705;-68
2022/10/09 04:42:05;;;;;;;12.48;5.60;;;;;;;;;;4994051;28;20224;-67
2022/10/09 04:44:30;;;;;;;10.77;5.65;;;;;;;;;;4994383;28;20216;-68
2022/10/09 04:46:55;;;;;;;10.20;4.90;;;;;;;;;;4995936;28;20239;-68
2022/10/09 04:49:21;;;;;;;11.48;6.35;;;;;;;;;;5001847;28;20220;-67
2022/10/09 04:51:46;;;;;;;12.77;5.60;;;;;;;;;;5002423;28;20679;-66
2022/10/09 04:54:11;;;;;;;9.93;5.30;;;;;;;;;;5001878;28;20414;-68
2022/10/09 04:56:36;;;;;;;10.73;5.72;;;;;;;;;;5001778;28;21058;-68
2022/10/09 04:59:02;;;;;;;11.35;5.60;;;;;;;;;;5001989;28;20239;-67
2022/10/09 05:01:27;;;;;;;12.80;6.57;;;;;;;;;;5002026;28;20354;-68
2022/10/09 05:03:52;;;;;;;12.82;6.40;;;;;;;;;;4995301;28;20231;-67
2022/10/09 05:06:18;;;;;;;12.68;7.13;;;;;;;;;;4993317;28;20216;-67
2022/10/09 05:08:43;;;;;;;10.55;7.05;;;;;;;;;;4992839;28;20244;-67
2022/10/09 05:11:09;;;;;;;13.05;6.53;;;;;;;;;;5000176;28;20257;-67
2022/10/09 05:13:35;;;;;;;11.75;6.32;;;;;;;;;;5002685;28;20295;-67
2022/10/09 05:16:03;;;;;;;14.85;7.20;;;;;;;;;;5001705;28;20639;-67
2022/10/09 05:18:28;;;;;;;13.68;6.10;;;;;;;;;;5001331;28;20228;-67
2022/10/09 05:20:53;;;;;;;10.75;6.10;;;;;;;;;;5002345;28;20252;-68
2022/10/09 05:23:18;;;;;;;9.55;5.50;;;;;;;;;;5001844;28;20212;-68
2022/10/09 05:25:52;;;;;;;10.93;5.93;;;;;;;;;;4997341;28;20242;-68
2022/10/09 05:28:17;;;;;;;12.95;6.55;;;;;;;;;;4993320;28;20270;-68
2022/10/09 05:30:42;;;;;;;10.50;5.72;;;;;;;;;;4994424;28;20220;-68
2022/10/09 05:33:08;;;;;;;9.52;5.47;;;;;;;;;;4997447;28;20227;-67
2022/10/09 05:35:33;;;;;;;12.88;6.68;;;;;;;;;;5002349;28;20286;-68
2022/10/09 05:37:58;;;;;;;11.10;5.85;;;;;;;;;;5001999;28;20568;-68
2022/10/09 05:40:23;;;;;;;9.80;5.70;;;;;;;;;;5001116;28;20647;-68
2022/10/09 05:42:49;;;;;;;10.60;5.97;;;;;;;;;;5002006;28;20283;-68
2022/10/09 05:45:15;;;;;;;11.67;6.23;;;;;;;;;;5001655;28;20315;-68
2022/10/09 05:47:40;;;;;;;12.38;5.47;;;;;;;;;;4999967;28;20617;-68
2022/10/09 05:50:05;;;;;;;10.65;6.00;;;;;;;;;;4993871;28;20228;-69
2022/10/09 05:52:30;;;;;;;11.98;5.78;;;;;;;;;;4993298;28;20303;-68
2022/10/09 05:54:56;;;;;;;12.23;6.28;;;;;;;;;;4995310;28;20244;-68
2022/10/09 05:57:21;;;;;;;10.60;6.85;;;;;;;;;;5001255;28;20282;-68
2022/10/09 05:59:46;;;;;;;14.10;7.00;;;;;;;;;;5001131;28;20255;-68
2022/10/09 06:02:13;;;;;;;14.48;6.93;;;;;;;;;;5001372;28;20217;-68
2022/10/09 06:04:38;;;;;;;14.82;6.88;;;;;;;;;;5002937;28;20216;-67
2022/10/09 06:07:03;;;;;;;12.15;7.32;;;;;;;;;;5004164;28;20251;-70
2022/10/09 06:09:28;;;;;;;11.90;6.95;;;;;;;;;;5005372;28;20213;-69
2022/10/09 06:11:54;;;;;;;11.77;7.25;;;;;;;;;;4998043;28;20754;-68
2022/10/09 06:14:20;;;;;;;14.13;5.80;;;;;;;;;;4995842;28;20587;-68
2022/10/09 06:16:46;;;;;;;10.70;6.18;;;;;;;;;;4997079;28;20585;-69
2022/10/09 06:19:12;;;;;;;10.75;6.35;;;;;;;;;;5002336;28;20209;-68
2022/10/09 06:21:37;;;;;;;13.02;7.45;;;;;;;;;;5002727;28;20621;-69
2022/10/09 06:24:03;;;;;;;12.48;6.63;;;;;;;;;;5004987;28;20271;-67
2022/10/09 06:26:28;;;;;;;13.93;6.97;;;;;;;;;;5003707;28;20230;-66
2022/10/09 06:28:53;;;;;;;11.23;6.43;;;;;;;;;;5003946;28;20671;-66
2022/10/09 06:31:19;;;;;;;10.65;6.88;;;;;;;;;;5006837;28;20227;-69
2022/10/09 06:33:45;;;;;;;12.38;7.38;;;;;;;;;;5011682;28;20419;-67
2022/10/09 06:36:11;;;;;;;14.27;7.50;;;;;;;;;;5013341;28;20235;-70
2022/10/09 06:38:37;;;;;;;13.50;8.02;;;;;;;;;;5014324;28;20676;-75
2022/10/09 06:41:10;;;;;;;16.48;8.35;;;;;;;;;;5012811;28;20223;-67
2022/10/09 06:43:35;;;;;;;13.70;7.90;;;;;;;;;;5013575;28;20223;-65
2022/10/09 06:46:01;;;;;;;13.45;7.93;;;;;;;;;;5001217;28;20898;-67
2022/10/09 06:48:29;;;;;;;13.73;8.50;;;;;;;;;;4998818;28;20244;-65
2022/10/09 06:50:55;;;;;;;15.57;8.85;;;;;;;;;;4999062;28;20588;-66
2022/10/09 06:53:21;;;;;;;16.13;8.73;;;;;;;;;;5001300;28;20213;-66
2022/10/09 06:55:52;;;;;;;16.42;9.52;;;;;;;;;;5006782;28;20404;-66
2022/10/09 06:58:17;;;;;;;17.70;10.32;;;;;;;;;;5006818;28;20232;-66
2022/10/09 07:00:44;;;;;;;17.45;9.23;;;;;;;;;;5007883;28;20227;-63
2022/10/09 07:03:09;;;;;;;15.07;8.13;;;;;;;;;;5005554;28;20213;-67
2022/10/09 07:05:34;;;;;;;18.30;8.63;;;;;;;;;;5007543;28;20231;-69
2022/10/09 07:08:00;;;;;;;12.77;7.20;;;;;;;;;;5007036;28;20680;-67
2022/10/09 07:10:25;;;;;;;12.98;6.70;;;;;;;;;;4999155;28;20244;-66
2022/10/09 07:12:51;;;;;;;11.07;7.13;;;;;;;;;;4998448;28;20723;-66
2022/10/09 07:15:16;;;;;;;13.20;7.10;;;;;;;;;;5000918;28;20844;-65
2022/10/09 07:17:41;;;;;;;12.20;6.03;;;;;;;;;;5005935;28;20213;-64
2022/10/09 07:20:06;;;;;;;13.05;6.70;;;;;;;;;;5007121;28;20303;-65
2022/10/09 07:22:32;;;;;;;15.52;7.20;;;;;;;;;;5007689;28;20530;-64
2022/10/09 07:24:57;;;;;;;12.82;6.60;;;;;;;;;;5006575;28;20228;-64
2022/10/09 07:27:22;;;;;;;14.68;6.57;;;;;;;;;;5007369;28;20277;-64
2022/10/09 07:29:48;;;;;;;16.40;7.13;;;;;;;;;;5007652;28;20213;-64
2022/10/09 07:32:13;;;;;;;12.35;6.95;;;;;;;;;;5001405;28;20212;-65
2022/10/09 07:34:38;;;;;;;14.27;7.00;;;;;;;;;;4999252;28;20303;-64
2022/10/09 07:37:03;;;;;;;13.02;5.93;;;;;;;;;;4998843;28;20224;-64
2022/10/09 07:39:29;;;;;;;13.25;6.13;;;;;;;;;;5002895;28;20211;-64
2022/10/09 07:41:54;;;;;;;11.05;5.63;;;;;;;;;;5006945;28;20363;-64
2022/10/09 07:44:19;;;;;;;14.00;5.60;;;;;;;;;;5006470;28;20541;-63
2022/10/09 07:46:45;;;;;;;11.52;5.50;;;;;;;;;;4998366;28;21719;-65
2022/10/09 07:49:10;;;;;;;12.98;6.20;;;;;;;;;;5004940;28;20216;-65
2022/10/09 07:51:36;;;;;;;16.08;7.13;;;;;;;;;;4998607;28;20220;-65
2022/10/09 07:54:01;;;;;;;15.70;7.15;;;;;;;;;;4997422;28;20460;-65
2022/10/09 07:56:28;;;;;;;13.50;5.88;;;;;;;;;;4995112;28;20216;-65
2022/10/09 07:58:54;;;;;;;14.35;6.60;;;;;;;;;;4995205;28;20228;-65
2022/10/09 08:01:19;;;;;;;15.68;6.47;;;;;;;;;;4995435;28;20236;-66
2022/10/09 08:03:44;;;;;;;12.65;6.07;;;;;;;;;;4984330;28;20213;-66
2022/10/09 08:06:09;;;;;;;18.05;7.35;;;;;;;;;;5000742;28;20237;-65
2022/10/09 08:08:35;;;;;;;12.23;7.57;;;;;;;;;;5001789;28;20220;-66
2022/10/09 08:11:06;;;;;;;12.70;6.65;;;;;;;;;;5001714;28;20209;-65
2022/10/09 08:13:31;;;;;;;12.23;6.20;;;;;;;;;;5001244;28;20265;-65
2022/10/09 08:15:57;;;;;;;18.80;12.45;;;;;;;;;;5001863;28;20493;-65
2022/10/09 08:18:22;;;;;;;10.00;5.75;;;;;;;;;;4994658;28;20216;-65
2022/10/09 08:20:56;;;;;;;13.10;6.10;;;;;;;;;;4994311;28;20640;-64
2022/10/09 08:23:22;;;;;;;25.40;18.13;;;;;;;;;;4993874;28;20215;-64
2022/10/09 08:25:48;;;;;;;15.80;6.07;;;;;;;;;;5000912;28;20228;-64
2022/10/09 08:28:14;;;;;;;11.52;5.68;;;;;;;;;;4999869;28;20204;-65
2022/10/09 08:30:39;;;;;;;9.85;5.80;;;;;;;;;;5001601;28;20223;-64
2022/10/09 08:33:04;;;;;;;11.48;5.60;;;;;;;;;;5001230;28;20589;-65
2022/10/09 08:35:29;;;;;;;12.15;5.72;;;;;;;;;;5000664;28;20208;-65
2022/10/09 08:37:55;;;;;;;12.65;5.55;;;;;;;;;;4999163;28;20702;-65
2022/10/09 08:40:24;;;;;;;13.27;5.65;;;;;;;;;;4996931;28;20369;-65
2022/10/09 08:42:55;;;;;;;11.00;5.50;;;;;;;;;;4993867;28;20220;-65
2022/10/09 08:45:20;;;;;;;15.25;5.93;;;;;;;;;;4993305;28;20216;-65
2022/10/09 08:47:49;;;;;;;11.07;5.15;;;;;;;;;;4998936;28;21047;-79
2022/10/09 08:50:17;;;;;;;15.05;5.32;;;;;;;;;;4998595;28;20311;-78
2022/10/09 08:52:50;;;;;;;11.90;5.50;;;;;;;;;;5001401;28;20874;-78
2022/10/09 08:55:18;;;;;;;12.02;5.50;;;;;;;;;;4999664;28;20283;-76
2022/10/09 08:57:44;;;;;;;10.40;5.65;;;;;;;;;;5001313;28;20212;-74
2022/10/09 09:00:15;;;;;;;12.07;5.72;;;;;;;;;;4999497;28;20571;-77
2022/10/09 09:03:00;;;;;;;11.15;4.72;;;;;;;;;;4996135;28;20262;-77
2022/10/09 09:05:34;;;;;;;13.23;5.07;;;;;;;;;;4994030;28;20502;-78
2022/10/09 09:08:03;;;;;;;15.55;5.75;;;;;;;;;;4994722;28;20592;-76
2022/10/09 09:10:32;;;;;;;9.82;4.82;;;;;;;;;;4997849;28;20644;-76
2022/10/09 09:13:05;;;;;;;12.45;5.43;;;;;;;;;;5001616;28;20235;-78
2022/10/09 09:15:34;;;;;;;11.18;5.45;;;;;;;;;;5000289;28;20265;-79
2022/10/09 09:18:08;;;;;;;11.27;6.03;;;;;;;;;;5000715;28;20225;-69
2022/10/09 09:20:38;;;;;;;10.63;5.10;;;;;;;;;;4999461;28;20240;-78
2022/10/09 09:23:04;;;;;;;12.27;4.65;;;;;;;;;;4999361;28;20439;-76
2022/10/09 09:25:32;;;;;;;8.88;4.35;;;;;;;;;;4995315;28;20236;-81
2022/10/09 09:27:58;;;;;;;11.60;4.55;;;;;;;;;;4992599;28;20217;-83
2022/10/09 09:30:28;;;;;;;13.05;4.30;;;;;;;;;;4993768;28;20590;-79
2022/10/09 09:32:58;;;;;;;10.93;3.80;;;;;;;;;;4998263;28;20212;-80
2022/10/09 09:35:26;;;;;;;11.90;3.63;;;;;;;;;;4999031;28;20270;-80
2022/10/09 09:37:51;;;;;;;8.57;3.28;;;;;;;;;;5000332;28;20222;-80
2022/10/09 09:40:17;;;;;;;8.40;3.20;;;;;;;;;;5000770;28;20209;-80
2022/10/09 09:42:42;;;;;;;10.25;3.42;;;;;;;;;;5004703;28;20220;-78
2022/10/09 09:45:11;;;;;;;9.27;3.70;;;;;;;;;;5003777;28;20217;-79
2022/10/09 09:47:38;;;;;;;7.45;3.25;;;;;;;;;;5000395;28;20457;-80
2022/10/09 09:50:04;;;;;;;9.07;3.50;;;;;;;;;;4997116;28;20303;-77
2022/10/09 09:52:30;;;;;;;10.23;3.97;;;;;;;;;;4997564;28;20415;-81
2022/10/09 09:54:56;;;;;;;10.48;3.70;;;;;;;;;;5000442;28;20223;-80
2022/10/09 09:57:26;;;;;;;10.15;3.33;;;;;;;;;;5002880;28;20212;-81
2022/10/09 09:59:51;;;;;;;7.82;3.20;;;;;;;;;;5001667;28;20232;-80
2022/10/09 10:02:18;;;;;;;11.70;3.67;;;;;;;;;;5004048;28;20694;-81
2022/10/09 10:04:50;;;;;;;10.23;3.45;;;;;;;;;;5003916;28;20217;-84
2022/10/09 10:07:27;;;;;;;8.75;3.30;;;;;;;;;;5003503;28;20256;-82
2022/10/09 10:10:05;;;;;;;9.15;3.28;;;;;;;;;;5003781;28;20219;-80
2022/10/09 10:12:30;;;;;;;8.88;3.20;;;;;;;;;;4997407;28;20701;-81
2022/10/09 10:14:55;;;;;;;8.38;3.58;;;;;;;;;;4997395;28;20278;-79
2022/10/09 10:17:24;;;;;;;9.18;3.63;;;;;;;;;;4999866;28;20619;-82
2022/10/09 10:19:49;;;;;;;7.72;2.97;;;;;;;;;;5003854;28;20244;-79
2022/10/09 10:22:21;;;;;;;9.73;3.30;;;;;;;;;;5003698;28;20519;-82
2022/10/09 10:24:48;;;;;;;9.32;3.35;;;;;;;;;;5002735;28;20267;-81
2022/10/09 10:27:23;;;;;;;8.27;3.17;;;;;;;;;;5001998;28;20236;-73
2022/10/09 10:29:48;;;;;;;8.75;3.22;;;;;;;;;;5003746;28;20255;-77
2022/10/09 10:32:16;;;;;;;9.25;3.10;;;;;;;;;;5002057;28;20754;-75
2022/10/09 10:34:44;;;;;;;7.13;3.50;;;;;;;;;;4996187;28;20216;-75
2022/10/09 10:37:17;;;;;;;12.93;3.25;;;;;;;;;;4994815;28;20220;-76
2022/10/09 10:39:51;;;;;;;8.95;3.38;;;;;;;;;;4999153;28;20262;-79
2022/10/09 10:42:18;;;;;;;7.07;2.85;;;;;;;;;;5002692;28;20927;-77
2022/10/09 10:44:49;;;;;;;9.05;3.50;;;;;;;;;;5002422;28;20228;-66
2022/10/09 10:47:16;;;;;;;7.25;3.45;;;;;;;;;;5005333;28;20323;-65
2022/10/09 10:49:41;;;;;;;8.10;3.35;;;;;;;;;;5007157;28;20325;-67
2022/10/09 10:52:10;;;;;;;7.93;3.30;;;;;;;;;;5007389;28;20220;-69
2022/10/09 10:54:40;;;;;;;7.60;3.35;;;;;;;;;;5007220;28;20287;-65
2022/10/09 10:57:15;;;;;;;10.23;3.15;;;;;;;;;;4989603;28;20228;-64
2022/10/09 10:59:46;;;;;;;10.25;3.35;;;;;;;;;;4996523;28;20236;-64
2022/10/09 11:02:27;;;;;;;9.65;3.28;;;;;;;;;;4997182;28;20211;-64
2022/10/09 11:04:54;;;;;;;10.68;3.03;;;;;;;;;;5003183;28;20215;-64
2022/10/09 11:07:23;;;;;;;10.27;3.60;;;;;;;;;;5002712;28;20270;-64
2022/10/09 11:09:51;;;;;;;9.40;3.47;;;;;;;;;;5002939;28;20239;-64
2022/10/09 11:12:22;;;;;;;8.80;3.13;;;;;;;;;;5001411;28;20223;-64
2022/10/09 11:14:56;;;;;;;9.65;3.00;;;;;;;;;;5000875;28;20307;-64
2022/10/09 11:17:33;;;;;;;7.82;2.60;;;;;;;;;;5000853;28;20824;-65
2022/10/09 11:20:06;;;;;;;9.23;2.97;;;;;;;;;;4993427;28;20452;-65
2022/10/09 11:22:46;;;;;;;12.32;3.60;;;;;;;;;;4995584;28;20294;-64
2022/10/09 11:25:27;;;;;;;9.90;2.30;;;;;;;;;;4996512;28;20212;-64
2022/10/09 11:27:56;;;;;;;6.57;2.50;;;;;;;;;;5002939;28;20248;-64
2022/10/09 11:30:24;;;;;;;7.80;2.50;;;;;;;;;;5001816;28;20675;-64
2022/10/09 11:32:52;;;;;;;6.07;2.60;;;;;;;;;;5002438;28;20227;-65
2022/10/09 11:35:19;;;;;;;7.13;2.60;;;;;;;;;;5002660;28;20547;-64
2022/10/09 11:37:46;;;;;;;7.50;2.90;;;;;;;;;;5002235;28;20236;-64
2022/10/09 11:40:20;;;;;;;7.72;2.50;;;;;;;;;;5000165;28;20225;-64
2022/10/09 11:42:46;;;;;;;7.57;2.42;;;;;;;;;;4993611;28;20730;-64
2022/10/09 11:45:15;;;;;;;8.75;1.75;;;;;;;;;;4994390;28;20216;-64
2022/10/09 11:47:43;;;;;;;8.68;2.10;;;;;;;;;;4997513;28;20225;-64
2022/10/09 11:50:18;;;;;;;6.97;2.15;;;;;;;;;;5001173;28;20263;-64
2022/10/09 11:52:53;;;;;;;4.93;1.73;;;;;;;;;;5001838;28;20215;-64
2022/10/09 11:55:20;;;;;;;9.48;1.80;;;;;;;;;;5000550;28;20958;-64
2022/10/09 11:57:45;;;;;;;5.72;1.85;;;;;;;;;;5001921;28;20212;-64
2022/10/09 12:00:11;;;;;;;6.18;1.80;;;;;;;;;;5000753;28;20567;-64
2022/10/09 12:02:36;;;;;;;9.27;1.90;;;;;;;;;;4999971;28;20279;-64
2022/10/09 12:05:14;;;;;;;5.70;1.58;;;;;;;;;;4993546;28;20223;-64
2022/10/09 12:07:39;;;;;;;4.40;1.40;;;;;;;;;;4995338;28;20225;-64
2022/10/09 12:10:06;;;;;;;344.77;301.27;;;;;;;;;;4997030;28;20825;-64
2022/10/09 12:12:32;;;;;;;30.58;22.30;;;;;;;;;;5000934;28;20563;-64
2022/10/09 12:14:57;;;;;;;8.02;3.28;;;;;;;;;;5001988;28;20220;-64
2022/10/09 12:17:22;;;;;;;9.23;4.30;;;;;;;;;;5000215;28;20744;-64
2022/10/09 12:19:49;;;;;;;4.90;2.10;;;;;;;;;;5001793;28;20219;-64
2022/10/09 12:22:14;;;;;;;7.80;2.13;;;;;;;;;;5001891;28;20251;-64
2022/10/09 12:24:40;;;;;;;6.88;1.50;;;;;;;;;;5001668;28;20333;-64
2022/10/09 12:27:05;;;;;;;6.32;1.70;;;;;;;;;;4993742;28;20741;-64
2022/10/09 12:29:39;;;;;;;7.22;1.58;;;;;;;;;;4994866;28;20208;-64
2022/10/09 12:32:05;;;;;;;4.30;1.40;;;;;;;;;;4996162;28;20212;-64
2022/10/09 12:34:37;;;;;;;5.53;1.58;;;;;;;;;;4998243;28;20208;-64
2022/10/09 12:37:08;;;;;;;5.03;1.20;;;;;;;;;;5000304;28;20303;-64
2022/10/09 12:39:36;;;;;;;5.15;1.25;;;;;;;;;;5001336;28;20319;-64
2022/10/09 12:42:01;;;;;;;5.03;1.20;;;;;;;;;;5001203;28;20209;-64
2022/10/09 12:44:28;;;;;;;4.72;1.35;;;;;;;;;;5000260;28;20434;-64
2022/10/09 12:46:54;;;;;;;5.97;1.65;;;;;;;;;;4983943;28;20715;-64
2022/10/09 12:49:21;;;;;;;4.05;1.42;;;;;;;;;;4996648;28;20322;-64
2022/10/09 12:51:50;;;;;;;7.00;1.88;;;;;;;;;;4993843;28;20217;-64
2022/10/09 12:54:15;;;;;;;4.82;1.48;;;;;;;;;;4993256;28;20216;-64
2022/10/09 12:56:41;;;;;;;7.43;1.65;;;;;;;;;;4996309;28;20786;-64
2022/10/09 12:59:07;;;;;;;6.72;1.50;;;;;;;;;;5000231;28;20228;-64
2022/10/09 13:01:33;;;;;;;5.38;1.20;;;;;;;;;;4996986;28;20212;-65
2022/10/09 13:03:58;;;;;;;6.07;1.73;;;;;;;;;;5000032;28;20746;-64
2022/10/09 13:06:26;;;;;;;6.95;1.70;;;;;;;;;;4996688;28;20227;-64
2022/10/09 13:08:52;;;;;;;4.50;1.80;;;;;;;;;;4997186;28;20259;-64
2022/10/09 13:11:18;;;;;;;5.63;1.50;;;;;;;;;;4997226;28;20204;-64
2022/10/09 13:13:48;;;;;;;8.40;1.60;;;;;;;;;;4993402;28;20899;-64
2022/10/09 13:16:14;;;;;;;3.78;1.25;;;;;;;;;;4997632;28;20235;-64
2022/10/09 13:18:39;;;;;;;6.47;1.45;;;;;;;;;;4999874;28;20785;-64
2022/10/09 13:21:16;;;;;;;6.57;1.35;;;;;;;;;;5005166;28;20213;-64
2022/10/09 13:23:41;;;;;;;6.63;1.42;;;;;;;;;;5003211;28;21072;-64
2022/10/09 13:26:09;;;;;;;6.45;1.50;;;;;;;;;;5004889;28;20228;-64
2022/10/09 13:28:34;;;;;;;4.90;1.23;;;;;;;;;;5003001;28;20239;-64
2022/10/09 13:31:04;;;;;;;6.13;1.58;;;;;;;;;;5004623;28;20237;-64
2022/10/09 13:33:29;;;;;;;4.45;1.30;;;;;;;;;;5004355;28;20231;-64
2022/10/09 13:35:55;;;;;;;7.13;1.50;;;;;;;;;;4996350;28;21226;-64
2022/10/09 13:38:20;;;;;;;4.90;1.50;;;;;;;;;;4997434;28;20245;-64
2022/10/09 13:40:45;;;;;;;6.68;1.33;;;;;;;;;;4999722;28;20224;-64
2022/10/09 13:43:17;;;;;;;5.60;1.48;;;;;;;;;;5003429;28;20204;-64
2022/10/09 13:45:42;;;;;;;8.40;1.40;;;;;;;;;;5002916;28;20302;-64
2022/10/09 13:48:08;;;;;;;4.70;1.40;;;;;;;;;;5004078;28;20301;-64
2022/10/09 13:50:33;;;;;;;4.65;1.20;;;;;;;;;;5005115;28;20776;-64
2022/10/09 13:52:59;;;;;;;6.35;1.60;;;;;;;;;;5004137;28;20213;-64
2022/10/09 13:55:24;;;;;;;6.32;1.55;;;;;;;;;;5003742;28;20325;-64
2022/10/09 13:57:49;;;;;;;6.78;1.80;;;;;;;;;;4999143;28;20232;-64
2022/10/09 14:00:14;;;;;;;4.85;1.27;;;;;;;;;;4996887;28;20945;-64
2022/10/09 14:02:40;;;;;;;7.78;1.60;;;;;;;;;;4999147;28;20239;-64
2022/10/09 14:05:05;;;;;;;3.00;0.95;;;;;;;;;;5001438;28;20208;-64
2022/10/09 14:07:30;;;;;;;3.58;1.15;;;;;;;;;;5000610;28;20235;-64
2022/10/09 14:09:56;;;;;;;5.15;1.42;;;;;;;;;;5004120;28;20270;-65
2022/10/09 14:12:21;;;;;;;4.28;1.20;;;;;;;;;;5003133;28;20225;-64
2022/10/09 14:14:46;;;;;;;6.38;1.77;;;;;;;;;;5004386;28;20232;-64
2022/10/09 14:17:12;;;;;;;4.93;1.50;;;;;;;;;;5004535;28;21139;-64
2022/10/09 14:19:37;;;;;;;6.03;1.40;;;;;;;;;;5000043;28;20301;-66
2022/10/09 14:22:02;;;;;;;5.20;1.40;;;;;;;;;;4996734;28;20205;-65
2022/10/09 14:24:27;;;;;;;4.93;1.35;;;;;;;;;;4998576;28;20216;-66
2022/10/09 14:26:53;;;;;;;4.45;1.23;;;;;;;;;;4998526;28;20228;-65
2022/10/09 14:29:18;;;;;;;6.28;1.60;;;;;;;;;;5003849;28;20283;-65
2022/10/09 14:31:43;;;;;;;5.30;1.48;;;;;;;;;;5004404;28;20247;-65
2022/10/09 14:34:09;;;;;;;6.45;1.40;;;;;;;;;;5002555;28;20236;-66